Time;durP1;ratioP1;P1;durP2;ratioP2;P2;SDS_P1;SDS_P2;PMS_P1;PMS_P2;Temp;Humidity;BMP_temperature;BMP_pressure;BME280_temperature;BME280_humidity;BME280_pressure;Samples;Min_cycle;Max_cycle;Signal;HPM_P1;HPM_P2
2022/08/28 00:00:27;;;;;;;7.18;3.08;;;13.90;99.90;;;;;;4990898;28;20076;-46
2022/08/28 00:02:53;;;;;;;6.97;3.25;;;13.90;99.90;;;;;;4987456;28;20022;-45
2022/08/28 00:05:21;;;;;;;7.47;3.47;;;13.90;99.90;;;;;;4989463;28;20045;-48
2022/08/28 00:07:47;;;;;;;7.15;2.88;;;13.90;99.90;;;;;;4986769;28;20048;-45
2022/08/28 00:10:15;;;;;;;9.30;3.40;;;13.90;99.90;;;;;;4989005;28;20065;-46
2022/08/28 00:12:42;;;;;;;7.18;3.55;;;13.90;99.90;;;;;;4990962;28;20022;-44
2022/08/28 00:15:12;;;;;;;11.40;3.92;;;13.80;99.90;;;;;;4987503;28;20121;-43
2022/08/28 00:17:38;;;;;;;20.00;3.80;;;13.80;99.90;;;;;;4990348;28;20026;-45
2022/08/28 00:20:06;;;;;;;7.03;3.00;;;13.80;99.90;;;;;;4985879;28;20101;-46
2022/08/28 00:22:32;;;;;;;9.93;3.88;;;13.80;99.90;;;;;;4988963;28;20023;-43
2022/08/28 00:24:58;;;;;;;7.28;2.92;;;13.80;99.90;;;;;;4985914;28;20038;-43
2022/08/28 00:30:08;;;;;;;9.93;3.20;;;13.70;99.90;;;;;;4990869;28;20370;-44
2022/08/28 00:32:34;;;;;;;8.00;3.08;;;13.70;99.90;;;;;;4987665;28;20524;-48
2022/08/28 00:35:01;;;;;;;9.30;2.80;;;13.70;99.90;;;;;;4990370;28;20418;-48
2022/08/28 00:37:27;;;;;;;10.50;3.25;;;13.70;99.90;;;;;;4987250;28;20102;-48
2022/08/28 00:39:53;;;;;;;13.68;3.67;;;13.60;99.90;;;;;;4989087;28;20430;-47
2022/08/28 00:42:19;;;;;;;9.75;3.85;;;13.60;99.90;;;;;;4985668;28;20055;-48
2022/08/28 00:44:45;;;;;;;9.40;2.95;;;13.60;99.90;;;;;;4988041;28;20026;-47
2022/08/28 00:47:11;;;;;;;6.07;2.83;;;13.60;99.90;;;;;;4974343;28;20029;-50
2022/08/28 00:49:46;;;;;;;5.22;2.70;;;13.60;99.90;;;;;;4992567;28;20469;-45
2022/08/28 00:52:14;;;;;;;9.82;3.53;;;13.60;99.90;;;;;;4985607;28;20523;-45
2022/08/28 00:54:45;;;;;;;9.82;2.70;;;13.50;99.90;;;;;;4990965;28;20023;-46
2022/08/28 00:57:16;;;;;;;8.48;3.20;;;13.50;99.90;;;;;;4987907;28;20019;-46
2022/08/28 00:59:42;;;;;;;4.78;2.78;;;13.50;99.90;;;;;;4967248;28;20030;-45
2022/08/28 01:02:08;;;;;;;9.35;3.45;;;13.50;99.90;;;;;;4985764;28;20098;-44
2022/08/28 01:04:36;;;;;;;5.20;2.85;;;13.40;99.90;;;;;;4984572;28;20033;-48
2022/08/28 01:07:06;;;;;;;11.45;3.33;;;13.40;99.90;;;;;;4988873;28;20165;-45
2022/08/28 01:09:32;;;;;;;10.25;3.03;;;13.40;99.90;;;;;;4985872;28;20033;-45
2022/08/28 01:12:03;;;;;;;10.45;3.53;;;13.40;99.90;;;;;;4990697;28;20022;-45
2022/08/28 01:14:31;;;;;;;8.15;3.80;;;13.40;99.90;;;;;;4969784;28;20025;-45
2022/08/28 01:16:57;;;;;;;12.32;3.80;;;13.30;99.90;;;;;;4989594;28;20481;-45
2022/08/28 01:19:36;;;;;;;4.68;2.58;;;13.30;99.90;;;;;;4986317;28;20105;-45
2022/08/28 01:22:29;;;;;;;14.38;3.88;;;13.20;99.90;;;;;;4988018;28;20045;-46
2022/08/28 01:24:57;;;;;;;9.32;2.60;;;13.20;99.90;;;;;;4985277;28;20089;-45
2022/08/28 01:27:23;;;;;;;9.23;2.80;;;13.20;99.90;;;;;;4965761;28;20391;-45
2022/08/28 01:29:49;;;;;;;7.70;3.40;;;13.20;99.90;;;;;;4986705;28;20026;-49
2022/08/28 01:32:36;;;;;;;5.15;2.83;;;13.10;99.90;;;;;;4986662;28;20022;-45
2022/08/28 01:35:07;;;;;;;9.40;3.33;;;13.10;99.90;;;;;;4988990;28;20022;-45
2022/08/28 01:37:33;;;;;;;8.23;3.17;;;13.10;99.90;;;;;;4986236;28;20538;-45
2022/08/28 01:40:00;;;;;;;8.35;3.67;;;13.10;99.90;;;;;;4988139;28;20034;-45
2022/08/28 01:42:25;;;;;;;6.93;3.33;;;13.10;99.90;;;;;;4962609;28;20570;-46
2022/08/28 01:44:52;;;;;;;8.95;3.47;;;13.10;99.90;;;;;;4986431;28;20109;-45
2022/08/28 01:47:20;;;;;;;11.00;2.72;;;13.10;99.90;;;;;;4984969;28;20019;-46
2022/08/28 01:49:45;;;;;;;10.98;3.42;;;13.10;99.90;;;;;;4973038;28;20037;-44
2022/08/28 01:52:11;;;;;;;8.38;3.53;;;13.10;99.90;;;;;;4982337;28;20075;-45
2022/08/28 01:54:37;;;;;;;8.68;3.08;;;13.00;99.90;;;;;;4989785;28;20145;-45
2022/08/28 01:57:02;;;;;;;5.43;3.00;;;13.00;99.90;;;;;;4988215;28;20093;-47
2022/08/28 01:59:28;;;;;;;6.88;2.97;;;13.00;99.90;;;;;;4987554;28;20085;-44
2022/08/28 02:01:54;;;;;;;9.50;4.10;;;13.00;99.90;;;;;;4988973;28;20022;-44
2022/08/28 02:04:20;;;;;;;10.98;4.22;;;13.00;99.90;;;;;;4984728;28;20099;-45
2022/08/28 02:06:46;;;;;;;6.88;2.80;;;13.00;99.90;;;;;;4989946;28;20097;-45
2022/08/28 02:09:11;;;;;;;6.65;3.67;;;12.90;99.90;;;;;;4959249;28;20029;-45
2022/08/28 02:11:40;;;;;;;11.32;3.22;;;12.90;99.90;;;;;;4989591;28;20081;-46
2022/08/28 02:14:06;;;;;;;7.75;3.83;;;12.90;99.90;;;;;;4987123;28;20054;-45
2022/08/28 02:16:31;;;;;;;13.60;3.33;;;12.90;99.90;;;;;;4989554;28;20513;-44
2022/08/28 02:18:57;;;;;;;6.10;2.95;;;12.80;99.90;;;;;;4992476;28;20506;-47
2022/08/28 02:21:24;;;;;;;8.80;3.17;;;12.80;99.90;;;;;;4988681;28;20105;-44
2022/08/28 02:23:49;;;;;;;6.50;3.35;;;12.80;99.90;;;;;;4993304;28;20719;-47
2022/08/28 02:26:16;;;;;;;5.22;2.75;;;12.80;99.90;;;;;;4986437;28;20033;-48
2022/08/28 02:28:42;;;;;;;8.52;3.40;;;12.70;99.90;;;;;;4993376;28;20064;-48
2022/08/28 02:31:08;;;;;;;10.80;3.47;;;12.70;99.90;;;;;;4993137;28;20030;-50
2022/08/28 02:33:42;;;;;;;7.75;2.78;;;12.70;99.90;;;;;;4991838;28;20026;-46
2022/08/28 02:36:09;;;;;;;6.55;2.63;;;12.70;99.90;;;;;;4988483;28;20030;-47
2022/08/28 02:38:36;;;;;;;6.03;3.30;;;12.60;99.90;;;;;;4988307;28;20057;-44
2022/08/28 02:41:03;;;;;;;5.75;2.60;;;12.60;99.90;;;;;;4971706;28;20022;-45
2022/08/28 02:43:28;;;;;;;7.28;3.15;;;12.60;99.90;;;;;;4988004;28;20379;-44
2022/08/28 02:45:54;;;;;;;8.35;3.03;;;12.60;99.90;;;;;;4991708;28;20033;-45
2022/08/28 02:48:19;;;;;;;6.30;3.13;;;12.60;99.90;;;;;;4989167;28;20435;-45
2022/08/28 02:50:45;;;;;;;4.97;2.92;;;12.60;99.90;;;;;;4992285;28;20038;-44
2022/08/28 02:53:12;;;;;;;8.95;3.70;;;12.60;99.90;;;;;;4989060;28;20025;-45
2022/08/28 02:55:38;;;;;;;10.18;3.22;;;12.60;99.90;;;;;;4975042;28;20064;-48
2022/08/28 02:58:05;;;;;;;7.07;2.97;;;12.50;99.90;;;;;;4990835;28;20030;-46
2022/08/28 03:00:31;;;;;;;13.02;3.72;;;12.50;99.90;;;;;;4991183;28;20523;-47
2022/08/28 03:02:57;;;;;;;5.82;3.25;;;12.50;99.90;;;;;;4992302;28;20033;-45
2022/08/28 03:05:24;;;;;;;15.30;3.72;;;12.50;99.90;;;;;;4987382;28;20031;-48
2022/08/28 03:07:52;;;;;;;6.78;2.90;;;12.50;99.90;;;;;;4992689;28;20065;-44
2022/08/28 03:10:18;;;;;;;7.63;3.35;;;12.50;99.90;;;;;;4985259;28;20027;-47
2022/08/28 03:12:44;;;;;;;7.07;3.80;;;12.50;99.90;;;;;;4991778;28;20026;-47
2022/08/28 03:15:10;;;;;;;9.02;3.65;;;12.40;99.90;;;;;;4989624;28;20019;-46
2022/08/28 03:17:35;;;;;;;8.30;3.10;;;12.40;99.90;;;;;;4966422;28;20034;-44
2022/08/28 03:20:06;;;;;;;7.65;3.83;;;12.40;99.90;;;;;;4990601;28;20026;-45
2022/08/28 03:25:16;;;;;;;7.30;2.53;;;12.40;99.90;;;;;;4984846;28;20033;-45
2022/08/28 03:27:42;;;;;;;6.35;2.65;;;12.40;99.90;;;;;;4987814;28;20390;-45
2022/08/28 03:30:08;;;;;;;10.80;2.83;;;12.40;99.90;;;;;;4991310;28;20537;-45
2022/08/28 03:32:35;;;;;;;9.43;3.17;;;12.40;99.90;;;;;;4987497;28;20174;-48
2022/08/28 03:35:02;;;;;;;3.58;2.70;;;12.30;99.90;;;;;;4990308;28;20113;-44
2022/08/28 03:37:27;;;;;;;7.93;3.40;;;12.30;99.90;;;;;;4987260;28;20078;-45
2022/08/28 03:39:53;;;;;;;7.20;3.25;;;12.30;99.90;;;;;;4989633;28;20446;-46
2022/08/28 03:42:19;;;;;;;7.90;3.22;;;12.30;99.90;;;;;;4991850;28;20019;-45
2022/08/28 03:44:47;;;;;;;10.52;2.80;;;12.30;99.90;;;;;;4988370;28;20114;-46
2022/08/28 03:47:14;;;;;;;4.68;2.70;;;12.20;99.90;;;;;;4990821;28;20022;-45
2022/08/28 03:49:39;;;;;;;8.02;3.53;;;12.20;99.90;;;;;;4987669;28;20027;-46
2022/08/28 03:52:05;;;;;;;8.30;3.88;;;12.20;99.90;;;;;;4989745;28;20544;-45
2022/08/28 03:54:31;;;;;;;8.85;3.22;;;12.10;99.90;;;;;;4991663;28;20018;-47
2022/08/28 03:56:57;;;;;;;8.27;3.80;;;12.10;99.90;;;;;;4987990;28;20027;-45
2022/08/28 03:59:22;;;;;;;6.00;2.53;;;12.10;99.90;;;;;;4990349;28;20105;-44
2022/08/28 04:01:48;;;;;;;11.32;3.97;;;12.10;99.90;;;;;;4986809;28;20023;-47
2022/08/28 04:04:14;;;;;;;6.03;3.20;;;12.00;99.90;;;;;;4981630;28;20015;-45
2022/08/28 04:06:40;;;;;;;7.43;3.25;;;12.00;99.90;;;;;;4965543;28;20022;-44
2022/08/28 04:09:06;;;;;;;6.78;3.58;;;12.00;99.90;;;;;;4988712;28;20027;-45
2022/08/28 04:11:36;;;;;;;8.23;4.13;;;12.00;99.90;;;;;;4990784;28;20174;-44
2022/08/28 04:14:02;;;;;;;6.32;3.33;;;12.00;99.90;;;;;;4986354;28;20034;-44
2022/08/28 04:16:28;;;;;;;9.80;3.35;;;12.00;99.90;;;;;;4990484;28;20064;-45
2022/08/28 04:18:53;;;;;;;8.07;3.60;;;11.90;99.90;;;;;;4986953;28;20038;-45
2022/08/28 04:21:25;;;;;;;7.20;3.90;;;11.90;99.90;;;;;;4988753;28;20018;-47
2022/08/28 04:23:51;;;;;;;10.18;4.15;;;11.90;99.90;;;;;;4965480;28;20014;-45
2022/08/28 04:26:22;;;;;;;6.53;3.55;;;11.90;99.90;;;;;;4988426;28;20145;-46
2022/08/28 04:28:51;;;;;;;7.03;3.58;;;11.90;99.90;;;;;;4966977;28;20041;-45
2022/08/28 04:31:17;;;;;;;8.32;4.82;;;11.90;99.90;;;;;;4981577;28;20022;-46
2022/08/28 04:33:43;;;;;;;6.60;4.03;;;11.80;99.90;;;;;;4989823;28;20034;-46
2022/08/28 04:36:14;;;;;;;10.57;4.78;;;11.80;99.90;;;;;;4986563;28;20033;-44
2022/08/28 04:38:41;;;;;;;7.28;3.95;;;11.80;99.90;;;;;;4988698;28;20022;-46
2022/08/28 04:41:08;;;;;;;8.57;4.55;;;11.80;99.90;;;;;;4985338;28;20483;-47
2022/08/28 04:43:35;;;;;;;6.20;4.07;;;11.70;99.90;;;;;;4987976;28;20065;-45
2022/08/28 04:46:06;;;;;;;6.82;3.97;;;11.80;99.90;;;;;;4989963;28;20026;-45
2022/08/28 04:48:32;;;;;;;7.50;4.20;;;11.70;99.90;;;;;;4987555;28;20049;-46
2022/08/28 04:50:57;;;;;;;7.90;4.55;;;11.70;99.90;;;;;;4989399;28;20615;-44
2022/08/28 04:53:23;;;;;;;6.75;4.03;;;11.70;99.90;;;;;;4986205;28;20033;-45
2022/08/28 04:55:50;;;;;;;8.00;3.47;;;11.80;99.90;;;;;;4990779;28;20022;-47
2022/08/28 04:58:18;;;;;;;8.88;4.35;;;11.80;99.90;;;;;;4986203;28;20014;-48
2022/08/28 05:00:47;;;;;;;5.97;3.63;;;11.80;99.90;;;;;;4990648;28;20019;-47
2022/08/28 05:03:15;;;;;;;10.07;3.65;;;11.80;99.90;;;;;;4960438;28;20022;-48
2022/08/28 05:05:46;;;;;;;10.38;3.65;;;11.80;99.90;;;;;;4990453;28;20019;-47
2022/08/28 05:08:14;;;;;;;8.15;4.40;;;11.80;99.90;;;;;;4959567;28;20061;-45
2022/08/28 05:10:41;;;;;;;9.65;4.80;;;11.90;99.90;;;;;;4990163;28;20101;-44
2022/08/28 05:13:08;;;;;;;8.60;4.43;;;11.90;99.90;;;;;;4987703;28;20022;-45
2022/08/28 05:15:43;;;;;;;7.78;4.15;;;11.90;99.90;;;;;;4988150;28;20133;-45
2022/08/28 05:18:09;;;;;;;10.10;4.53;;;11.90;99.90;;;;;;4970431;28;20026;-46
2022/08/28 05:20:37;;;;;;;8.43;2.97;;;12.00;99.90;;;;;;4986749;28;20021;-45
2022/08/28 05:23:04;;;;;;;7.82;3.45;;;12.00;99.90;;;;;;4987767;28;20041;-47
2022/08/28 05:25:38;;;;;;;5.57;2.83;;;12.10;99.90;;;;;;4984535;28;20117;-44
2022/08/28 05:28:04;;;;;;;8.10;3.33;;;12.20;99.90;;;;;;4986951;28;20037;-44
2022/08/28 05:30:31;;;;;;;8.38;3.20;;;12.20;99.90;;;;;;4971604;28;20394;-45
2022/08/28 05:32:57;;;;;;;7.22;3.42;;;12.30;99.90;;;;;;4985984;28;20030;-46
2022/08/28 05:35:23;;;;;;;9.82;3.55;;;12.30;99.90;;;;;;4988814;28;20113;-45
2022/08/28 05:37:51;;;;;;;7.32;3.08;;;12.40;99.90;;;;;;4985398;28;20161;-49
2022/08/28 05:40:17;;;;;;;7.25;3.13;;;12.40;99.90;;;;;;4988019;28;20022;-44
2022/08/28 05:42:43;;;;;;;9.40;3.85;;;12.50;99.90;;;;;;4984418;28;20011;-45
2022/08/28 05:45:09;;;;;;;7.18;3.67;;;12.50;99.90;;;;;;4969379;28;20038;-45
2022/08/28 05:47:34;;;;;;;6.03;3.20;;;12.60;99.90;;;;;;4999189;23;20051;-57
2022/08/28 05:50:00;;;;;;;11.77;4.10;;;12.70;99.90;;;;;;4972717;28;20077;-55
2022/08/28 05:52:27;;;;;;;8.57;3.45;;;12.80;99.90;;;;;;4978434;28;20106;-56
2022/08/28 05:54:53;;;;;;;4.28;2.92;;;12.90;99.90;;;;;;4974774;28;20110;-55
2022/08/28 05:57:18;;;;;;;9.57;3.17;;;13.00;99.90;;;;;;4961423;28;20579;-57
2022/08/28 05:59:44;;;;;;;10.48;3.25;;;13.10;99.90;;;;;;4974512;28;20106;-57
2022/08/28 06:02:09;;;;;;;10.07;3.10;;;13.20;99.90;;;;;;4970077;28;20435;-56
2022/08/28 06:04:38;;;;;;;8.77;3.05;;;13.30;99.90;;;;;;4972863;28;20019;-58
2022/08/28 06:07:04;;;;;;;6.88;2.90;;;13.40;99.90;;;;;;4949177;28;20129;-57
2022/08/28 06:09:30;;;;;;;15.75;3.25;;;13.50;99.90;;;;;;4971812;28;20093;-56
2022/08/28 06:12:00;;;;;;;10.27;3.28;;;13.50;99.90;;;;;;4973733;28;20097;-57
2022/08/28 06:14:26;;;;;;;13.73;3.10;;;13.60;99.90;;;;;;4971003;28;20034;-58
2022/08/28 06:16:54;;;;;;;10.48;3.75;;;13.70;99.90;;;;;;4972973;28;20035;-58
2022/08/28 06:19:22;;;;;;;8.75;3.70;;;13.80;99.90;;;;;;4969784;28;20019;-57
2022/08/28 06:21:51;;;;;;;7.82;3.28;;;13.90;99.90;;;;;;4946906;28;20038;-55
2022/08/28 06:24:17;;;;;;;13.00;3.10;;;14.00;99.90;;;;;;4966339;28;20041;-56
2022/08/28 06:26:44;;;;;;;6.32;3.05;;;14.10;99.90;;;;;;4971247;28;20073;-57
2022/08/28 06:29:12;;;;;;;5.40;2.65;;;14.20;99.90;;;;;;4973530;28;20106;-56
2022/08/28 06:31:39;;;;;;;6.60;3.35;;;14.30;99.90;;;;;;4970093;28;20093;-56
2022/08/28 06:34:05;;;;;;;6.88;2.75;;;14.40;99.90;;;;;;4972846;28;20030;-58
2022/08/28 06:36:34;;;;;;;8.23;2.72;;;14.50;99.90;;;;;;4969556;28;20023;-57
2022/08/28 06:39:01;;;;;;;10.13;3.28;;;14.60;99.90;;;;;;4971812;28;20031;-54
2022/08/28 06:41:28;;;;;;;7.82;3.10;;;14.60;99.90;;;;;;4968843;28;20383;-57
2022/08/28 06:43:54;;;;;;;7.22;2.97;;;14.60;99.90;;;;;;4970531;28;20030;-56
2022/08/28 06:46:21;;;;;;;8.20;2.70;;;14.70;99.90;;;;;;4973453;28;20018;-53
2022/08/28 06:48:46;;;;;;;6.38;2.35;;;14.80;99.90;;;;;;4970238;28;20514;-56
2022/08/28 06:51:13;;;;;;;9.18;3.28;;;14.80;99.90;;;;;;4971623;28;20027;-56
2022/08/28 06:53:40;;;;;;;11.55;2.80;;;14.90;99.90;;;;;;4969120;28;20023;-57
2022/08/28 06:56:10;;;;;;;7.43;2.28;;;15.10;99.90;;;;;;4970751;28;20038;-57
2022/08/28 06:58:39;;;;;;;9.75;2.83;;;15.10;99.90;;;;;;4971557;28;20015;-58
2022/08/28 07:01:09;;;;;;;6.20;2.80;;;15.30;99.90;;;;;;4971212;28;20035;-59
2022/08/28 07:03:35;;;;;;;7.20;1.90;;;15.40;99.90;;;;;;4969811;28;20046;-58
2022/08/28 07:06:03;;;;;;;4.80;2.20;;;15.60;99.90;;;;;;4971584;28;20023;-57
2022/08/28 07:08:29;;;;;;;5.63;2.60;;;15.70;99.90;;;;;;4967364;28;20091;-58
2022/08/28 07:10:55;;;;;;;8.75;2.80;;;15.90;99.90;;;;;;4974649;28;20031;-58
2022/08/28 07:13:21;;;;;;;9.27;2.75;;;16.10;99.90;;;;;;4976584;28;20126;-58
2022/08/28 07:15:47;;;;;;;10.38;2.95;;;16.20;99.90;;;;;;4977647;28;20038;-58
2022/08/28 07:18:13;;;;;;;10.57;2.05;;;16.40;99.90;;;;;;4963052;28;20023;-58
2022/08/28 07:20:39;;;;;;;9.07;2.47;;;16.50;99.90;;;;;;4976456;28;20102;-58
2022/08/28 07:23:05;;;;;;;5.53;2.10;;;16.70;99.90;;;;;;4978103;28;20109;-59
2022/08/28 07:25:31;;;;;;;11.52;2.67;;;16.90;99.90;;;;;;4975679;28;20030;-58
2022/08/28 07:27:57;;;;;;;6.80;2.20;;;17.10;99.90;;;;;;4977928;28;20019;-58
2022/08/28 07:30:22;;;;;;;14.02;3.78;;;17.20;99.90;;;;;;4981709;28;20117;-59
2022/08/28 07:32:48;;;;;;;4.70;2.92;;;17.40;99.90;;;;;;4976618;28;20451;-58
2022/08/28 07:35:17;;;;;;;7.53;2.72;;;17.50;99.90;;;;;;4978344;28;20553;-59
2022/08/28 07:37:44;;;;;;;10.55;2.65;;;17.70;99.90;;;;;;4975610;28;20105;-58
2022/08/28 07:40:10;;;;;;;10.15;2.63;;;17.90;99.90;;;;;;4980920;28;20026;-56
2022/08/28 07:45:21;;;;;;;6.45;1.92;;;18.30;99.90;;;;;;4978379;28;20540;-59
2022/08/28 07:47:46;;;;;;;9.52;3.13;;;18.50;99.90;;;;;;4977532;28;20034;-51
2022/08/28 07:50:13;;;;;;;6.32;2.15;;;18.60;99.90;;;;;;4977916;28;20034;-58
2022/08/28 07:52:40;;;;;;;5.25;2.60;;;18.60;99.90;;;;;;4977523;28;20061;-58
2022/08/28 07:55:06;;;;;;;10.38;2.80;;;18.70;99.90;;;;;;4954969;28;20069;-58
2022/08/28 07:57:33;;;;;;;7.25;2.63;;;18.90;99.90;;;;;;4946525;29;20082;-60
2022/08/28 07:59:59;;;;;;;4.30;2.13;;;19.00;99.90;;;;;;4970528;28;20063;-60
2022/08/28 08:02:24;;;;;;;9.05;2.55;;;19.00;99.90;;;;;;4968548;28;20019;-58
2022/08/28 08:04:50;;;;;;;12.52;3.58;;;19.10;99.90;;;;;;4978530;28;20023;-58
2022/08/28 08:07:16;;;;;;;7.65;2.65;;;19.10;99.90;;;;;;4976514;28;20023;-58
2022/08/28 08:09:43;;;;;;;7.60;2.78;;;19.20;99.90;;;;;;4978771;28;20037;-56
2022/08/28 08:12:10;;;;;;;5.90;2.55;;;19.30;99.90;;;;;;4969728;28;20509;-58
2022/08/28 08:14:38;;;;;;;8.07;2.95;;;19.50;99.90;;;;;;4959624;28;20042;-58
2022/08/28 08:17:04;;;;;;;4.88;2.38;;;19.70;99.90;;;;;;4981946;28;20023;-58
2022/08/28 08:19:30;;;;;;;8.23;2.47;;;19.80;99.90;;;;;;4976811;28;20026;-57
2022/08/28 08:21:56;;;;;;;8.45;3.22;;;19.70;99.90;;;;;;4979994;28;20381;-57
2022/08/28 08:24:27;;;;;;;9.75;2.63;;;19.80;99.90;;;;;;4975515;28;20019;-58
2022/08/28 08:26:57;;;;;;;5.13;2.13;;;19.90;99.90;;;;;;4978918;28;20023;-57
2022/08/28 08:29:23;;;;;;;6.40;2.05;;;20.00;99.90;;;;;;4974858;28;20042;-56
2022/08/28 08:32:05;;;;;;;11.10;2.45;;;20.00;99.90;;;;;;4964666;28;20055;-55
2022/08/28 08:34:34;;;;;;;6.43;2.40;;;19.90;99.90;;;;;;4951330;28;20019;-55
2022/08/28 08:37:00;;;;;;;7.40;2.63;;;20.00;99.90;;;;;;4976670;28;20117;-60
2022/08/28 08:39:26;;;;;;;7.18;2.22;;;20.20;99.90;;;;;;4979552;28;20489;-56
2022/08/28 08:41:55;;;;;;;5.30;2.03;;;20.30;99.90;;;;;;4957668;28;20027;-58
2022/08/28 08:44:41;;;;;;;6.93;3.15;;;20.50;99.90;;;;;;4978445;28;20022;-57
2022/08/28 08:47:29;;;;;;;12.05;2.80;;;20.50;99.90;;;;;;4974401;28;20197;-58
2022/08/28 08:50:01;;;;;;;7.90;2.53;;;20.40;99.90;;;;;;4976741;28;20619;-53
2022/08/28 08:52:33;;;;;;;8.90;2.30;;;20.20;99.80;;;;;;4975016;28;20023;-57
2022/08/28 08:54:58;;;;;;;6.70;2.55;;;20.00;99.90;;;;;;4973503;28;20399;-57
2022/08/28 08:57:24;;;;;;;7.28;2.15;;;19.70;99.90;;;;;;4967995;28;20026;-57
2022/08/28 08:59:50;;;;;;;6.80;2.42;;;19.60;99.90;;;;;;4969900;28;20039;-57
2022/08/28 09:02:22;;;;;;;6.35;2.35;;;19.50;99.90;;;;;;4967071;28;20015;-57
2022/08/28 09:05:00;;;;;;;7.90;2.95;;;19.50;99.90;;;;;;4969128;28;20019;-56
2022/08/28 09:07:46;;;;;;;3.72;1.88;;;19.80;99.90;;;;;;4965401;28;20026;-58
2022/08/28 09:10:13;;;;;;;5.60;1.90;;;19.90;99.90;;;;;;4968032;28;20026;-58
2022/08/28 09:13:09;;;;;;;4.40;2.03;;;20.20;99.90;;;;;;4953830;28;20037;-56
2022/08/28 09:15:39;;;;;;;;;;;20.40;99.80;;;;;;4969588;28;20081;-59
2022/08/28 09:18:30;;;;;;;4.70;2.25;;;20.40;99.50;;;;;;4968957;28;19960;-59
2022/08/28 09:20:58;;;;;;;9.82;2.88;;;20.30;99.20;;;;;;4966595;28;20037;-58
2022/08/28 09:23:27;;;;;;;7.32;2.35;;;20.20;99.40;;;;;;4966125;28;20019;-59
2022/08/28 09:25:57;;;;;;;6.53;2.55;;;20.20;99.50;;;;;;4967098;28;20775;-59
2022/08/28 09:28:33;;;;;;;6.15;2.72;;;20.10;99.90;;;;;;4970786;28;20031;-59
2022/08/28 09:31:14;;;;;;;7.88;2.13;;;20.20;99.90;;;;;;4967007;28;20031;-57
2022/08/28 09:33:48;;;;;;;6.65;2.58;;;20.30;99.70;;;;;;4969787;28;20022;-57
2022/08/28 09:36:30;;;;;;;4.90;2.40;;;20.40;99.20;;;;;;4962915;28;20023;-58
2022/08/28 09:39:35;;;;;;;9.82;2.45;;;20.20;99.20;;;;;;4968547;28;20085;-59
2022/08/28 09:45:19;;;;;;;7.15;1.83;;;20.20;99.70;;;;;;4968309;28;20090;-58
2022/08/28 09:47:54;;;;;;;6.72;2.55;;;20.30;99.10;;;;;;4966736;28;20030;-57
2022/08/28 09:50:20;;;;;;;6.57;2.50;;;20.20;98.90;;;;;;4963590;28;20027;-59
2022/08/28 09:52:45;;;;;;;8.13;2.30;;;20.20;99.60;;;;;;4966028;28;20023;-58
2022/08/28 09:55:18;;;;;;;7.78;2.08;;;20.20;99.70;;;;;;4970745;28;20030;-58
2022/08/28 09:57:46;;;;;;;4.70;2.65;;;20.20;99.90;;;;;;4967056;28;20027;-58
2022/08/28 10:00:12;;;;;;;8.63;2.55;;;20.20;98.60;;;;;;4969302;28;20030;-59
2022/08/28 10:03:03;;;;;;;5.05;2.38;;;20.20;98.90;;;;;;4965946;28;20037;-58
2022/08/28 10:05:40;;;;;;;6.63;2.58;;;20.30;98.60;;;;;;4964716;28;20740;-59
2022/08/28 10:08:43;;;;;;;8.77;2.45;;;20.40;98.70;;;;;;4963284;28;20090;-59
2022/08/28 10:11:24;;;;;;;6.47;2.05;;;20.50;97.90;;;;;;4968940;28;20034;-59
2022/08/28 10:14:05;;;;;;;6.28;2.17;;;20.40;98.40;;;;;;4966913;28;20023;-59
2022/08/28 10:16:56;;;;;;;6.18;2.42;;;20.30;97.60;;;;;;4969271;28;20094;-59
2022/08/28 10:19:38;;;;;;;5.43;1.90;;;20.30;97.60;;;;;;4965583;28;20225;-58
2022/08/28 10:22:36;;;;;;;5.10;2.40;;;20.40;97.00;;;;;;4968504;28;20015;-59
2022/08/28 10:25:07;;;;;;;5.10;2.97;;;20.50;96.30;;;;;;4963955;28;20098;-57
2022/08/28 10:27:54;;;;;;;5.53;2.60;;;20.40;96.30;;;;;;4969139;28;20023;-58
2022/08/28 10:30:22;;;;;;;11.25;2.63;;;20.50;97.40;;;;;;4961341;28;20027;-59
2022/08/28 10:33:01;;;;;;;5.32;2.35;;;20.70;96.40;;;;;;4968620;28;20110;-58
2022/08/28 10:35:41;;;;;;;8.80;2.25;;;20.80;96.40;;;;;;4960507;28;20492;-57
2022/08/28 10:38:22;;;;;;;5.97;2.65;;;20.80;96.00;;;;;;4970733;28;20527;-58
2022/08/28 10:40:55;;;;;;;7.30;3.10;;;20.60;96.90;;;;;;4968402;28;20034;-59
2022/08/28 10:43:23;;;;;;;6.95;1.98;;;20.60;96.80;;;;;;4966577;28;20371;-58
2022/08/28 10:45:50;;;;;;;5.95;2.30;;;20.60;96.60;;;;;;4972916;28;20387;-59
2022/08/28 10:48:23;;;;;;;5.20;2.08;;;20.70;97.30;;;;;;4952335;28;20039;-59
2022/08/28 10:50:59;;;;;;;4.50;2.20;;;20.80;98.40;;;;;;4972015;28;20035;-58
2022/08/28 10:53:35;;;;;;;7.38;2.80;;;20.90;98.50;;;;;;4968740;28;20062;-59
2022/08/28 10:56:21;;;;;;;;;;;20.90;98.60;;;;;;4956231;28;20126;-58
2022/08/28 10:58:50;;;;;;;5.10;2.80;;;20.90;98.30;;;;;;4951263;28;19910;-58
2022/08/28 11:01:37;;;;;;;8.13;2.80;;;20.90;98.60;;;;;;4970122;28;20019;-60
2022/08/28 11:04:14;;;;;;;7.85;2.70;;;20.80;98.90;;;;;;4970361;28;20019;-57
2022/08/28 11:06:43;;;;;;;8.52;3.00;;;20.70;98.70;;;;;;4967356;28;20023;-59
2022/08/28 11:09:24;;;;;;;9.75;2.67;;;20.60;98.70;;;;;;4970659;28;20041;-57
2022/08/28 11:11:55;;;;;;;9.25;2.83;;;20.40;99.40;;;;;;4972384;28;20490;-59
2022/08/28 11:14:34;;;;;;;7.95;2.90;;;20.30;98.80;;;;;;4969145;28;20026;-58
2022/08/28 11:17:09;;;;;;;6.38;2.47;;;20.30;98.60;;;;;;4971574;28;20027;-59
2022/08/28 11:20:19;;;;;;;7.28;2.90;;;20.30;98.80;;;;;;4968650;28;20030;-58
2022/08/28 11:23:19;;;;;;;5.72;3.15;;;20.40;98.00;;;;;;4939389;28;20089;-58
2022/08/28 11:25:50;;;;;;;6.28;2.75;;;20.40;99.00;;;;;;4968969;28;20022;-58
2022/08/28 11:28:24;;;;;;;5.07;2.78;;;20.50;98.20;;;;;;4964695;28;20035;-58
2022/08/28 11:31:05;;;;;;;6.57;3.38;;;20.60;97.60;;;;;;4968982;28;20126;-58
2022/08/28 11:33:47;;;;;;;7.75;2.58;;;20.50;97.50;;;;;;4971369;28;20031;-59
2022/08/28 11:36:18;;;;;;;9.10;3.10;;;20.40;96.90;;;;;;4968318;28;20562;-58
2022/08/28 11:38:44;;;;;;;7.45;2.58;;;20.30;97.40;;;;;;4970072;28;20101;-60
2022/08/28 11:41:26;;;;;;;6.22;2.28;;;20.20;97.40;;;;;;4966501;28;20106;-57
2022/08/28 11:44:12;;;;;;;4.38;2.38;;;20.20;97.20;;;;;;4969349;28;20019;-57
2022/08/28 11:46:46;;;;;;;7.15;2.38;;;20.20;97.20;;;;;;4993430;23;20749;-43
2022/08/28 11:49:30;;;;;;;7.95;2.92;;;20.10;97.10;;;;;;4964853;28;20053;-47
2022/08/28 11:52:21;;;;;;;8.82;3.83;;;20.20;97.50;;;;;;4971527;28;20466;-43
2022/08/28 11:54:52;;;;;;;8.75;3.45;;;20.20;97.90;;;;;;4972655;28;20629;-44
2022/08/28 11:57:27;;;;;;;8.40;2.75;;;20.30;98.50;;;;;;4964754;28;20023;-43
2022/08/28 12:00:07;;;;;;;7.25;2.33;;;20.40;98.40;;;;;;4970920;28;20121;-44
2022/08/28 12:02:38;;;;;;;5.10;2.58;;;20.50;98.00;;;;;;4944364;29;20031;-47
2022/08/28 12:05:11;;;;;;;4.38;2.20;;;20.50;97.90;;;;;;4970382;28;20554;-44
2022/08/28 12:07:47;;;;;;;8.68;3.03;;;20.40;98.20;;;;;;4943433;29;20159;-44
2022/08/28 12:10:19;;;;;;;8.32;2.72;;;20.40;97.90;;;;;;4971753;28;20027;-46
2022/08/28 12:12:44;;;;;;;8.27;2.50;;;20.40;97.50;;;;;;4972045;28;20023;-48
2022/08/28 12:15:31;;;;;;;5.78;2.92;;;20.30;97.20;;;;;;4967363;28;20038;-45
2022/08/28 12:17:59;;;;;;;4.88;2.80;;;20.30;97.70;;;;;;4971108;28;20026;-44
2022/08/28 12:20:54;;;;;;;8.98;3.30;;;20.40;96.90;;;;;;4966990;28;20035;-43
2022/08/28 12:23:33;;;;;;;6.60;2.85;;;20.40;97.00;;;;;;4952152;28;20094;-46
2022/08/28 12:26:04;;;;;;;6.30;2.60;;;20.50;96.50;;;;;;4969738;28;20027;-43
2022/08/28 12:28:38;;;;;;;6.00;2.40;;;20.60;96.30;;;;;;4971381;28;20587;-44
2022/08/28 12:31:03;;;;;;;6.60;2.28;;;20.70;94.80;;;;;;4970412;28;20034;-44
2022/08/28 12:33:49;;;;;;;5.65;2.35;;;20.70;95.30;;;;;;4970223;28;20080;-46
2022/08/28 12:36:17;;;;;;;6.07;2.67;;;21.00;95.80;;;;;;4971818;28;20023;-47
2022/08/28 12:38:49;;;;;;;5.20;2.60;;;21.20;95.50;;;;;;4945370;29;20077;-42
2022/08/28 12:41:16;;;;;;;6.10;2.80;;;21.40;94.00;;;;;;4966133;28;20022;-46
2022/08/28 12:43:47;;;;;;;9.02;3.03;;;21.50;94.20;;;;;;4968777;28;20082;-46
2022/08/28 12:46:19;;;;;;;5.05;2.20;;;21.60;93.50;;;;;;4970840;28;20073;-51
2022/08/28 12:48:51;;;;;;;5.43;2.75;;;21.60;94.00;;;;;;4967595;28;20491;-45
2022/08/28 12:51:26;;;;;;;5.85;2.40;;;21.50;93.60;;;;;;4942211;29;20077;-48
2022/08/28 12:53:58;;;;;;;6.28;2.50;;;21.50;93.60;;;;;;4968852;28;20041;-45
2022/08/28 12:56:25;;;;;;;4.18;2.30;;;21.50;93.70;;;;;;4967984;28;20049;-47
2022/08/28 12:58:51;;;;;;;7.35;2.95;;;21.50;94.80;;;;;;4970248;28;20029;-46
2022/08/28 13:01:20;;;;;;;5.53;2.30;;;21.30;96.00;;;;;;4971063;28;20023;-49
2022/08/28 13:03:53;;;;;;;10.43;3.03;;;21.30;96.70;;;;;;4969577;28;20027;-47
2022/08/28 13:06:26;;;;;;;5.68;2.35;;;21.30;97.20;;;;;;4960396;28;20042;-45
2022/08/28 13:08:59;;;;;;;4.28;2.67;;;21.30;97.20;;;;;;4968099;28;20057;-45
2022/08/28 13:11:29;;;;;;;5.07;2.70;;;21.20;97.50;;;;;;4970760;28;20479;-45